sensor_id;sensor_type;location;lat;lon;timestamp;P1;durP1;ratioP1;P2;durP2;ratioP2
26989;SDS011;14537;47.788;11.858;2023-05-10T00:00:43;1.85;;;0.20;;
26989;SDS011;14537;47.788;11.858;2023-05-10T00:03:09;0.20;;;0.10;;
26989;SDS011;14537;47.788;11.858;2023-05-10T00:05:34;0.15;;;0.15;;
26989;SDS011;14537;47.788;11.858;2023-05-10T00:08:00;0.17;;;0.17;;
26989;SDS011;14537;47.788;11.858;2023-05-10T00:10:26;0.47;;;0.10;;
26989;SDS011;14537;47.788;11.858;2023-05-10T00:12:51;0.15;;;0.15;;
26989;SDS011;14537;47.788;11.858;2023-05-10T00:15:17;0.20;;;0.20;;
26989;SDS011;14537;47.788;11.858;2023-05-10T00:17:42;0.20;;;0.20;;
26989;SDS011;14537;47.788;11.858;2023-05-10T00:20:08;0.20;;;0.20;;
26989;SDS011;14537;47.788;11.858;2023-05-10T00:22:34;0.10;;;0.10;;
26989;SDS011;14537;47.788;11.858;2023-05-10T00:25:00;0.20;;;0.20;;
26989;SDS011;14537;47.788;11.858;2023-05-10T00:27:26;3.03;;;0.32;;
26989;SDS011;14537;47.788;11.858;2023-05-10T00:29:51;0.52;;;0.10;;
26989;SDS011;14537;47.788;11.858;2023-05-10T00:32:17;0.45;;;0.20;;
26989;SDS011;14537;47.788;11.858;2023-05-10T00:34:42;0.35;;;0.20;;
26989;SDS011;14537;47.788;11.858;2023-05-10T00:37:08;0.10;;;0.10;;
26989;SDS011;14537;47.788;11.858;2023-05-10T00:39:34;0.00;;;0.00;;
26989;SDS011;14537;47.788;11.858;2023-05-10T00:41:59;0.30;;;0.20;;
26989;SDS011;14537;47.788;11.858;2023-05-10T00:44:25;0.20;;;0.00;;
26989;SDS011;14537;47.788;11.858;2023-05-10T00:46:51;0.10;;;0.10;;
26989;SDS011;14537;47.788;11.858;2023-05-10T00:49:17;1.45;;;0.05;;
26989;SDS011;14537;47.788;11.858;2023-05-10T00:51:43;0.20;;;0.13;;
26989;SDS011;14537;47.788;11.858;2023-05-10T00:54:12;0.10;;;0.10;;
26989;SDS011;14537;47.788;11.858;2023-05-10T00:56:39;0.10;;;0.10;;
26989;SDS011;14537;47.788;11.858;2023-05-10T00:59:06;0.35;;;0.20;;
26989;SDS011;14537;47.788;11.858;2023-05-10T01:01:33;0.00;;;0.00;;
26989;SDS011;14537;47.788;11.858;2023-05-10T01:03:59;0.10;;;0.10;;
26989;SDS011;14537;47.788;11.858;2023-05-10T01:06:25;2.28;;;0.10;;
26989;SDS011;14537;47.788;11.858;2023-05-10T01:08:50;0.00;;;0.00;;
26989;SDS011;14537;47.788;11.858;2023-05-10T01:11:16;0.10;;;0.05;;
26989;SDS011;14537;47.788;11.858;2023-05-10T01:13:42;0.25;;;0.13;;
26989;SDS011;14537;47.788;11.858;2023-05-10T01:16:11;0.00;;;0.00;;
26989;SDS011;14537;47.788;11.858;2023-05-10T01:18:39;0.10;;;0.10;;
26989;SDS011;14537;47.788;11.858;2023-05-10T01:29:14;0.00;;;0.00;;
26989;SDS011;14537;47.788;11.858;2023-05-10T01:34:23;0.10;;;0.10;;
26989;SDS011;14537;47.788;11.858;2023-05-10T01:36:58;0.10;;;0.10;;
26989;SDS011;14537;47.788;11.858;2023-05-10T01:42:11;0.03;;;0.00;;
26989;SDS011;14537;47.788;11.858;2023-05-10T01:50:04;1.23;;;0.00;;
26989;SDS011;14537;47.788;11.858;2023-05-10T01:52:38;0.15;;;0.10;;
26989;SDS011;14537;47.788;11.858;2023-05-10T01:55:09;0.20;;;0.10;;
26989;SDS011;14537;47.788;11.858;2023-05-10T01:57:39;0.17;;;0.10;;
26989;SDS011;14537;47.788;11.858;2023-05-10T02:00:07;0.00;;;0.00;;
26989;SDS011;14537;47.788;11.858;2023-05-10T02:02:36;0.08;;;0.08;;
26989;SDS011;14537;47.788;11.858;2023-05-10T02:05:03;0.00;;;0.00;;
26989;SDS011;14537;47.788;11.858;2023-05-10T02:07:31;0.10;;;0.10;;
26989;SDS011;14537;47.788;11.858;2023-05-10T02:10:00;0.07;;;0.07;;
26989;SDS011;14537;47.788;11.858;2023-05-10T02:12:31;0.00;;;0.00;;
26989;SDS011;14537;47.788;11.858;2023-05-10T02:14:59;0.10;;;0.10;;
26989;SDS011;14537;47.788;11.858;2023-05-10T02:17:27;0.20;;;0.20;;
26989;SDS011;14537;47.788;11.858;2023-05-10T02:19:55;0.15;;;0.10;;
26989;SDS011;14537;47.788;11.858;2023-05-10T02:22:22;0.00;;;0.00;;
26989;SDS011;14537;47.788;11.858;2023-05-10T02:24:49;0.20;;;0.20;;
26989;SDS011;14537;47.788;11.858;2023-05-10T02:27:15;0.00;;;0.00;;
26989;SDS011;14537;47.788;11.858;2023-05-10T02:29:43;0.10;;;0.10;;
26989;SDS011;14537;47.788;11.858;2023-05-10T02:32:09;0.00;;;0.00;;
26989;SDS011;14537;47.788;11.858;2023-05-10T02:34:35;0.10;;;0.10;;
26989;SDS011;14537;47.788;11.858;2023-05-10T02:37:01;0.10;;;0.10;;
26989;SDS011;14537;47.788;11.858;2023-05-10T02:39:28;0.00;;;0.00;;
26989;SDS011;14537;47.788;11.858;2023-05-10T02:41:56;0.22;;;0.10;;
26989;SDS011;14537;47.788;11.858;2023-05-10T02:44:22;0.00;;;0.00;;
26989;SDS011;14537;47.788;11.858;2023-05-10T02:46:50;0.10;;;0.10;;
26989;SDS011;14537;47.788;11.858;2023-05-10T02:49:15;0.17;;;0.10;;
26989;SDS011;14537;47.788;11.858;2023-05-10T02:51:43;0.00;;;0.00;;
26989;SDS011;14537;47.788;11.858;2023-05-10T02:54:23;0.00;;;0.00;;
26989;SDS011;14537;47.788;11.858;2023-05-10T02:56:58;0.00;;;0.00;;
26989;SDS011;14537;47.788;11.858;2023-05-10T02:59:26;0.00;;;0.00;;
26989;SDS011;14537;47.788;11.858;2023-05-10T03:01:52;0.00;;;0.00;;
26989;SDS011;14537;47.788;11.858;2023-05-10T03:04:17;0.00;;;0.00;;
26989;SDS011;14537;47.788;11.858;2023-05-10T03:06:43;0.20;;;0.20;;
26989;SDS011;14537;47.788;11.858;2023-05-10T03:09:09;0.00;;;0.00;;
26989;SDS011;14537;47.788;11.858;2023-05-10T03:11:53;0.10;;;0.10;;
26989;SDS011;14537;47.788;11.858;2023-05-10T03:20:25;2.45;;;0.28;;
26989;SDS011;14537;47.788;11.858;2023-05-10T03:23:00;0.45;;;0.30;;
26989;SDS011;14537;47.788;11.858;2023-05-10T03:25:31;0.15;;;0.10;;
26989;SDS011;14537;47.788;11.858;2023-05-10T03:27:57;1.25;;;0.40;;
26989;SDS011;14537;47.788;11.858;2023-05-10T03:30:24;3.28;;;0.10;;
26989;SDS011;14537;47.788;11.858;2023-05-10T03:32:50;0.38;;;0.15;;
26989;SDS011;14537;47.788;11.858;2023-05-10T03:35:16;0.43;;;0.10;;
26989;SDS011;14537;47.788;11.858;2023-05-10T03:37:41;0.10;;;0.10;;
26989;SDS011;14537;47.788;11.858;2023-05-10T03:40:07;0.20;;;0.20;;
26989;SDS011;14537;47.788;11.858;2023-05-10T03:42:35;0.40;;;0.30;;
26989;SDS011;14537;47.788;11.858;2023-05-10T03:45:00;0.30;;;0.25;;
26989;SDS011;14537;47.788;11.858;2023-05-10T03:47:26;0.60;;;0.22;;
26989;SDS011;14537;47.788;11.858;2023-05-10T03:49:52;0.40;;;0.20;;
26989;SDS011;14537;47.788;11.858;2023-05-10T03:52:17;0.40;;;0.30;;
26989;SDS011;14537;47.788;11.858;2023-05-10T03:54:43;0.13;;;0.10;;
26989;SDS011;14537;47.788;11.858;2023-05-10T03:57:09;0.00;;;0.00;;
26989;SDS011;14537;47.788;11.858;2023-05-10T03:59:34;0.10;;;0.10;;
26989;SDS011;14537;47.788;11.858;2023-05-10T04:02:00;0.10;;;0.10;;
26989;SDS011;14537;47.788;11.858;2023-05-10T04:04:26;0.08;;;0.08;;
26989;SDS011;14537;47.788;11.858;2023-05-10T04:06:51;0.20;;;0.10;;
26989;SDS011;14537;47.788;11.858;2023-05-10T04:09:17;0.00;;;0.00;;
26989;SDS011;14537;47.788;11.858;2023-05-10T04:11:42;0.47;;;0.10;;
26989;SDS011;14537;47.788;11.858;2023-05-10T04:14:08;0.10;;;0.10;;
26989;SDS011;14537;47.788;11.858;2023-05-10T04:16:34;0.20;;;0.20;;
26989;SDS011;14537;47.788;11.858;2023-05-10T04:18:59;0.17;;;0.10;;
26989;SDS011;14537;47.788;11.858;2023-05-10T04:21:25;0.43;;;0.20;;
26989;SDS011;14537;47.788;11.858;2023-05-10T04:23:51;0.13;;;0.10;;
26989;SDS011;14537;47.788;11.858;2023-05-10T04:26:16;0.00;;;0.00;;
26989;SDS011;14537;47.788;11.858;2023-05-10T04:28:42;0.10;;;0.00;;
26989;SDS011;14537;47.788;11.858;2023-05-10T04:31:08;0.00;;;0.00;;
26989;SDS011;14537;47.788;11.858;2023-05-10T04:33:35;2.20;;;0.28;;
26989;SDS011;14537;47.788;11.858;2023-05-10T04:36:02;0.00;;;0.00;;
26989;SDS011;14537;47.788;11.858;2023-05-10T04:38:28;0.10;;;0.10;;
26989;SDS011;14537;47.788;11.858;2023-05-10T04:40:54;1.65;;;0.10;;
26989;SDS011;14537;47.788;11.858;2023-05-10T04:43:19;0.00;;;0.00;;
26989;SDS011;14537;47.788;11.858;2023-05-10T04:45:45;0.08;;;0.08;;
26989;SDS011;14537;47.788;11.858;2023-05-10T04:48:11;0.03;;;0.03;;
26989;SDS011;14537;47.788;11.858;2023-05-10T04:50:37;0.13;;;0.10;;
26989;SDS011;14537;47.788;11.858;2023-05-10T04:53:04;0.17;;;0.10;;
26989;SDS011;14537;47.788;11.858;2023-05-10T04:55:30;0.00;;;0.00;;
26989;SDS011;14537;47.788;11.858;2023-05-10T04:57:55;0.10;;;0.10;;
26989;SDS011;14537;47.788;11.858;2023-05-10T05:00:22;0.10;;;0.10;;
26989;SDS011;14537;47.788;11.858;2023-05-10T05:02:48;0.32;;;0.10;;
26989;SDS011;14537;47.788;11.858;2023-05-10T05:05:14;0.20;;;0.10;;
26989;SDS011;14537;47.788;11.858;2023-05-10T05:07:39;1.45;;;0.10;;
26989;SDS011;14537;47.788;11.858;2023-05-10T05:10:06;0.10;;;0.10;;
26989;SDS011;14537;47.788;11.858;2023-05-10T05:12:32;0.00;;;0.00;;
26989;SDS011;14537;47.788;11.858;2023-05-10T05:14:58;0.00;;;0.00;;
26989;SDS011;14537;47.788;11.858;2023-05-10T05:17:23;0.10;;;0.10;;
26989;SDS011;14537;47.788;11.858;2023-05-10T05:19:49;0.10;;;0.10;;
26989;SDS011;14537;47.788;11.858;2023-05-10T05:22:14;0.00;;;0.00;;
26989;SDS011;14537;47.788;11.858;2023-05-10T05:24:40;1.08;;;0.10;;
26989;SDS011;14537;47.788;11.858;2023-05-10T05:27:06;1.55;;;0.20;;
26989;SDS011;14537;47.788;11.858;2023-05-10T05:29:31;0.10;;;0.10;;
26989;SDS011;14537;47.788;11.858;2023-05-10T05:31:57;0.32;;;0.17;;
26989;SDS011;14537;47.788;11.858;2023-05-10T05:34:23;0.10;;;0.10;;
26989;SDS011;14537;47.788;11.858;2023-05-10T05:36:49;0.10;;;0.10;;
26989;SDS011;14537;47.788;11.858;2023-05-10T05:39:15;0.57;;;0.10;;
26989;SDS011;14537;47.788;11.858;2023-05-10T05:41:40;0.30;;;0.20;;
26989;SDS011;14537;47.788;11.858;2023-05-10T05:44:06;0.63;;;0.22;;
26989;SDS011;14537;47.788;11.858;2023-05-10T05:46:32;0.10;;;0.10;;
26989;SDS011;14537;47.788;11.858;2023-05-10T05:48:57;0.20;;;0.10;;
26989;SDS011;14537;47.788;11.858;2023-05-10T05:51:23;0.10;;;0.10;;
26989;SDS011;14537;47.788;11.858;2023-05-10T05:53:48;0.98;;;0.10;;
26989;SDS011;14537;47.788;11.858;2023-05-10T05:56:14;0.05;;;0.05;;
26989;SDS011;14537;47.788;11.858;2023-05-10T05:58:40;0.32;;;0.20;;
26989;SDS011;14537;47.788;11.858;2023-05-10T06:01:05;3.85;;;0.25;;
26989;SDS011;14537;47.788;11.858;2023-05-10T06:03:31;0.00;;;0.00;;
26989;SDS011;14537;47.788;11.858;2023-05-10T06:05:57;0.63;;;0.17;;
26989;SDS011;14537;47.788;11.858;2023-05-10T06:08:23;0.13;;;0.10;;
26989;SDS011;14537;47.788;11.858;2023-05-10T06:10:48;0.25;;;0.10;;
26989;SDS011;14537;47.788;11.858;2023-05-10T06:13:14;0.05;;;0.05;;
26989;SDS011;14537;47.788;11.858;2023-05-10T06:15:40;0.13;;;0.13;;
26989;SDS011;14537;47.788;11.858;2023-05-10T06:18:06;0.55;;;0.20;;
26989;SDS011;14537;47.788;11.858;2023-05-10T06:20:31;0.43;;;0.20;;
26989;SDS011;14537;47.788;11.858;2023-05-10T06:22:57;0.10;;;0.10;;
26989;SDS011;14537;47.788;11.858;2023-05-10T06:25:23;0.70;;;0.30;;
26989;SDS011;14537;47.788;11.858;2023-05-10T06:27:49;0.50;;;0.47;;
26989;SDS011;14537;47.788;11.858;2023-05-10T06:30:14;3.40;;;1.20;;
26989;SDS011;14537;47.788;11.858;2023-05-10T06:32:40;2.22;;;1.05;;
26989;SDS011;14537;47.788;11.858;2023-05-10T06:35:06;0.20;;;0.20;;
26989;SDS011;14537;47.788;11.858;2023-05-10T06:37:32;0.73;;;0.45;;
26989;SDS011;14537;47.788;11.858;2023-05-10T06:39:59;0.65;;;0.30;;
26989;SDS011;14537;47.788;11.858;2023-05-10T06:42:25;0.50;;;0.35;;
26989;SDS011;14537;47.788;11.858;2023-05-10T06:44:52;0.55;;;0.20;;
26989;SDS011;14537;47.788;11.858;2023-05-10T06:47:17;1.75;;;0.80;;
26989;SDS011;14537;47.788;11.858;2023-05-10T06:49:43;1.35;;;0.80;;
26989;SDS011;14537;47.788;11.858;2023-05-10T06:52:08;2.08;;;1.15;;
26989;SDS011;14537;47.788;11.858;2023-05-10T06:54:34;4.10;;;1.05;;
26989;SDS011;14537;47.788;11.858;2023-05-10T06:56:59;2.78;;;0.80;;
26989;SDS011;14537;47.788;11.858;2023-05-10T06:59:25;2.72;;;0.60;;
26989;SDS011;14537;47.788;11.858;2023-05-10T07:01:51;1.95;;;1.10;;
26989;SDS011;14537;47.788;11.858;2023-05-10T07:04:16;1.38;;;0.80;;
26989;SDS011;14537;47.788;11.858;2023-05-10T07:06:42;0.77;;;0.70;;
26989;SDS011;14537;47.788;11.858;2023-05-10T07:09:08;0.40;;;0.40;;
26989;SDS011;14537;47.788;11.858;2023-05-10T07:11:34;1.17;;;0.45;;
26989;SDS011;14537;47.788;11.858;2023-05-10T07:14:00;0.30;;;0.20;;
26989;SDS011;14537;47.788;11.858;2023-05-10T07:16:26;0.20;;;0.20;;
26989;SDS011;14537;47.788;11.858;2023-05-10T07:18:51;4.75;;;0.50;;
26989;SDS011;14537;47.788;11.858;2023-05-10T07:21:18;0.30;;;0.30;;
26989;SDS011;14537;47.788;11.858;2023-05-10T07:23:44;0.32;;;0.32;;
26989;SDS011;14537;47.788;11.858;2023-05-10T07:26:09;1.90;;;0.35;;
26989;SDS011;14537;47.788;11.858;2023-05-10T07:28:35;0.57;;;0.57;;
26989;SDS011;14537;47.788;11.858;2023-05-10T07:31:02;0.93;;;0.88;;
26989;SDS011;14537;47.788;11.858;2023-05-10T07:33:28;4.50;;;0.80;;
26989;SDS011;14537;47.788;11.858;2023-05-10T07:35:53;0.38;;;0.38;;
26989;SDS011;14537;47.788;11.858;2023-05-10T07:38:19;0.70;;;0.60;;
26989;SDS011;14537;47.788;11.858;2023-05-10T07:40:45;1.05;;;0.60;;
26989;SDS011;14537;47.788;11.858;2023-05-10T07:43:10;0.60;;;0.50;;
26989;SDS011;14537;47.788;11.858;2023-05-10T07:45:36;1.50;;;0.70;;
26989;SDS011;14537;47.788;11.858;2023-05-10T07:48:02;0.90;;;0.80;;
26989;SDS011;14537;47.788;11.858;2023-05-10T07:50:27;1.42;;;0.80;;
26989;SDS011;14537;47.788;11.858;2023-05-10T07:52:53;0.95;;;0.70;;
26989;SDS011;14537;47.788;11.858;2023-05-10T07:55:19;2.22;;;1.33;;
26989;SDS011;14537;47.788;11.858;2023-05-10T07:57:46;0.90;;;0.77;;
26989;SDS011;14537;47.788;11.858;2023-05-10T08:00:12;1.25;;;0.60;;
26989;SDS011;14537;47.788;11.858;2023-05-10T08:02:41;2.97;;;0.60;;
26989;SDS011;14537;47.788;11.858;2023-05-10T08:05:07;0.57;;;0.50;;
26989;SDS011;14537;47.788;11.858;2023-05-10T08:07:33;1.60;;;0.77;;
26989;SDS011;14537;47.788;11.858;2023-05-10T08:09:58;2.45;;;0.88;;
26989;SDS011;14537;47.788;11.858;2023-05-10T08:12:24;1.00;;;0.70;;
26989;SDS011;14537;47.788;11.858;2023-05-10T08:14:50;0.50;;;0.50;;
26989;SDS011;14537;47.788;11.858;2023-05-10T08:17:15;0.93;;;0.70;;
26989;SDS011;14537;47.788;11.858;2023-05-10T08:19:41;1.20;;;1.08;;
26989;SDS011;14537;47.788;11.858;2023-05-10T08:22:06;0.50;;;0.50;;
26989;SDS011;14537;47.788;11.858;2023-05-10T08:24:32;1.88;;;0.60;;
26989;SDS011;14537;47.788;11.858;2023-05-10T08:27:03;1.08;;;0.60;;
26989;SDS011;14537;47.788;11.858;2023-05-10T08:29:33;0.80;;;0.65;;
26989;SDS011;14537;47.788;11.858;2023-05-10T08:31:59;1.38;;;0.73;;
26989;SDS011;14537;47.788;11.858;2023-05-10T08:34:26;1.17;;;0.55;;
26989;SDS011;14537;47.788;11.858;2023-05-10T08:36:51;0.88;;;0.68;;
26989;SDS011;14537;47.788;11.858;2023-05-10T08:39:17;0.43;;;0.43;;
26989;SDS011;14537;47.788;11.858;2023-05-10T08:41:43;1.83;;;0.63;;
26989;SDS011;14537;47.788;11.858;2023-05-10T08:44:10;0.80;;;0.65;;
26989;SDS011;14537;47.788;11.858;2023-05-10T08:46:36;0.50;;;0.40;;
26989;SDS011;14537;47.788;11.858;2023-05-10T08:49:04;1.42;;;0.77;;
26989;SDS011;14537;47.788;11.858;2023-05-10T08:51:34;1.38;;;0.50;;
26989;SDS011;14537;47.788;11.858;2023-05-10T08:54:02;0.52;;;0.50;;
26989;SDS011;14537;47.788;11.858;2023-05-10T08:56:28;0.60;;;0.60;;
26989;SDS011;14537;47.788;11.858;2023-05-10T08:58:54;0.77;;;0.50;;
26989;SDS011;14537;47.788;11.858;2023-05-10T09:01:21;0.50;;;0.50;;
26989;SDS011;14537;47.788;11.858;2023-05-10T09:03:48;1.67;;;0.40;;
26989;SDS011;14537;47.788;11.858;2023-05-10T09:06:15;0.65;;;0.50;;
26989;SDS011;14537;47.788;11.858;2023-05-10T09:08:41;0.43;;;0.43;;
26989;SDS011;14537;47.788;11.858;2023-05-10T09:11:07;0.60;;;0.60;;
26989;SDS011;14537;47.788;11.858;2023-05-10T09:13:35;0.85;;;0.50;;
26989;SDS011;14537;47.788;11.858;2023-05-10T09:16:00;0.80;;;0.45;;
26989;SDS011;14537;47.788;11.858;2023-05-10T09:18:27;1.05;;;0.60;;
26989;SDS011;14537;47.788;11.858;2023-05-10T09:20:53;0.50;;;0.50;;
26989;SDS011;14537;47.788;11.858;2023-05-10T09:23:19;0.40;;;0.40;;
26989;SDS011;14537;47.788;11.858;2023-05-10T09:25:44;0.50;;;0.50;;
26989;SDS011;14537;47.788;11.858;2023-05-10T09:28:11;0.65;;;0.50;;
26989;SDS011;14537;47.788;11.858;2023-05-10T09:30:37;0.55;;;0.47;;
26989;SDS011;14537;47.788;11.858;2023-05-10T09:33:02;1.73;;;0.50;;
26989;SDS011;14537;47.788;11.858;2023-05-10T09:35:29;0.90;;;0.70;;
26989;SDS011;14537;47.788;11.858;2023-05-10T09:37:57;0.80;;;0.55;;
26989;SDS011;14537;47.788;11.858;2023-05-10T09:40:26;0.60;;;0.60;;
26989;SDS011;14537;47.788;11.858;2023-05-10T09:43:07;0.60;;;0.55;;
26989;SDS011;14537;47.788;11.858;2023-05-10T09:45:35;1.17;;;0.60;;
26989;SDS011;14537;47.788;11.858;2023-05-10T09:48:01;1.50;;;0.60;;
26989;SDS011;14537;47.788;11.858;2023-05-10T09:50:28;1.73;;;0.68;;
26989;SDS011;14537;47.788;11.858;2023-05-10T09:55:23;0.55;;;0.52;;
26989;SDS011;14537;47.788;11.858;2023-05-10T09:57:58;0.30;;;0.30;;
26989;SDS011;14537;47.788;11.858;2023-05-10T10:00:25;0.32;;;0.30;;
26989;SDS011;14537;47.788;11.858;2023-05-10T10:02:54;0.57;;;0.40;;
26989;SDS011;14537;47.788;11.858;2023-05-10T10:05:27;3.92;;;0.60;;
26989;SDS011;14537;47.788;11.858;2023-05-10T10:07:57;1.13;;;0.70;;
26989;SDS011;14537;47.788;11.858;2023-05-10T10:10:24;0.35;;;0.30;;
26989;SDS011;14537;47.788;11.858;2023-05-10T10:12:50;1.58;;;0.85;;
26989;SDS011;14537;47.788;11.858;2023-05-10T10:15:16;0.70;;;0.35;;
26989;SDS011;14537;47.788;11.858;2023-05-10T10:17:42;2.25;;;0.85;;
26989;SDS011;14537;47.788;11.858;2023-05-10T10:20:09;0.85;;;0.40;;
26989;SDS011;14537;47.788;11.858;2023-05-10T10:22:36;0.40;;;0.30;;
26989;SDS011;14537;47.788;11.858;2023-05-10T10:25:02;0.60;;;0.60;;
26989;SDS011;14537;47.788;11.858;2023-05-10T10:27:39;0.73;;;0.40;;
26989;SDS011;14537;47.788;11.858;2023-05-10T10:30:35;1.35;;;0.57;;
26989;SDS011;14537;47.788;11.858;2023-05-10T10:33:18;0.73;;;0.43;;
26989;SDS011;14537;47.788;11.858;2023-05-10T10:36:00;0.50;;;0.50;;
26989;SDS011;14537;47.788;11.858;2023-05-10T10:41:26;0.30;;;0.30;;
26989;SDS011;14537;47.788;11.858;2023-05-10T10:49:27;0.28;;;0.28;;
26989;SDS011;14537;47.788;11.858;2023-05-10T10:54:50;0.50;;;0.50;;
26989;SDS011;14537;47.788;11.858;2023-05-10T10:57:26;0.77;;;0.50;;
26989;SDS011;14537;47.788;11.858;2023-05-10T11:05:33;1.45;;;0.65;;
26989;SDS011;14537;47.788;11.858;2023-05-10T11:08:08;1.20;;;0.90;;
26989;SDS011;14537;47.788;11.858;2023-05-10T11:16:23;0.73;;;0.57;;
26989;SDS011;14537;47.788;11.858;2023-05-10T11:19:03;5.32;;;0.80;;
26989;SDS011;14537;47.788;11.858;2023-05-10T11:21:32;0.40;;;0.40;;
26989;SDS011;14537;47.788;11.858;2023-05-10T11:23:59;0.70;;;0.60;;
26989;SDS011;14537;47.788;11.858;2023-05-10T11:26:29;1.95;;;0.90;;
26989;SDS011;14537;47.788;11.858;2023-05-10T11:28:56;1.75;;;0.70;;
26989;SDS011;14537;47.788;11.858;2023-05-10T11:31:23;1.00;;;0.73;;
26989;SDS011;14537;47.788;11.858;2023-05-10T11:33:52;0.75;;;0.70;;
26989;SDS011;14537;47.788;11.858;2023-05-10T11:36:24;1.35;;;0.88;;
26989;SDS011;14537;47.788;11.858;2023-05-10T11:38:51;1.05;;;0.55;;
26989;SDS011;14537;47.788;11.858;2023-05-10T11:41:17;1.10;;;0.60;;
26989;SDS011;14537;47.788;11.858;2023-05-10T11:46:14;0.82;;;0.40;;
26989;SDS011;14537;47.788;11.858;2023-05-10T11:48:40;0.82;;;0.50;;
26989;SDS011;14537;47.788;11.858;2023-05-10T11:51:07;0.40;;;0.40;;
26989;SDS011;14537;47.788;11.858;2023-05-10T11:53:33;0.57;;;0.32;;
26989;SDS011;14537;47.788;11.858;2023-05-10T11:56:05;0.73;;;0.50;;
26989;SDS011;14537;47.788;11.858;2023-05-10T11:58:32;0.75;;;0.52;;
26989;SDS011;14537;47.788;11.858;2023-05-10T12:00:59;0.57;;;0.57;;
26989;SDS011;14537;47.788;11.858;2023-05-10T12:03:25;0.43;;;0.40;;
26989;SDS011;14537;47.788;11.858;2023-05-10T12:05:51;2.65;;;0.50;;
26989;SDS011;14537;47.788;11.858;2023-05-10T12:08:21;0.32;;;0.30;;
26989;SDS011;14537;47.788;11.858;2023-05-10T12:10:48;1.45;;;1.00;;
26989;SDS011;14537;47.788;11.858;2023-05-10T12:13:14;1.58;;;0.70;;
26989;SDS011;14537;47.788;11.858;2023-05-10T12:15:40;2.58;;;0.57;;
26989;SDS011;14537;47.788;11.858;2023-05-10T12:18:13;0.95;;;0.57;;
26989;SDS011;14537;47.788;11.858;2023-05-10T12:20:39;0.85;;;0.68;;
26989;SDS011;14537;47.788;11.858;2023-05-10T12:23:05;4.00;;;0.80;;
26989;SDS011;14537;47.788;11.858;2023-05-10T12:25:35;0.95;;;0.55;;
26989;SDS011;14537;47.788;11.858;2023-05-10T12:28:05;0.32;;;0.32;;
26989;SDS011;14537;47.788;11.858;2023-05-10T12:30:33;0.50;;;0.40;;
26989;SDS011;14537;47.788;11.858;2023-05-10T12:33:07;0.45;;;0.45;;
26989;SDS011;14537;47.788;11.858;2023-05-10T12:35:32;1.95;;;0.45;;
26989;SDS011;14537;47.788;11.858;2023-05-10T12:37:59;0.55;;;0.55;;
26989;SDS011;14537;47.788;11.858;2023-05-10T12:40:24;1.42;;;0.60;;
26989;SDS011;14537;47.788;11.858;2023-05-10T12:42:50;0.70;;;0.60;;
26989;SDS011;14537;47.788;11.858;2023-05-10T12:45:17;1.77;;;0.50;;
26989;SDS011;14537;47.788;11.858;2023-05-10T12:47:43;0.80;;;0.68;;
26989;SDS011;14537;47.788;11.858;2023-05-10T12:50:09;1.52;;;0.57;;
26989;SDS011;14537;47.788;11.858;2023-05-10T12:52:35;0.45;;;0.43;;
26989;SDS011;14537;47.788;11.858;2023-05-10T12:55:01;0.80;;;0.57;;
26989;SDS011;14537;47.788;11.858;2023-05-10T12:57:28;0.98;;;0.68;;
26989;SDS011;14537;47.788;11.858;2023-05-10T12:59:53;1.38;;;0.57;;
26989;SDS011;14537;47.788;11.858;2023-05-10T13:02:19;2.67;;;0.90;;
26989;SDS011;14537;47.788;11.858;2023-05-10T13:04:46;1.50;;;0.85;;
26989;SDS011;14537;47.788;11.858;2023-05-10T13:07:12;2.42;;;1.30;;
26989;SDS011;14537;47.788;11.858;2023-05-10T13:09:38;0.95;;;0.65;;
26989;SDS011;14537;47.788;11.858;2023-05-10T13:12:04;1.63;;;1.20;;
26989;SDS011;14537;47.788;11.858;2023-05-10T13:14:30;1.58;;;0.85;;
26989;SDS011;14537;47.788;11.858;2023-05-10T13:16:56;1.95;;;0.70;;
26989;SDS011;14537;47.788;11.858;2023-05-10T13:19:22;3.28;;;1.00;;
26989;SDS011;14537;47.788;11.858;2023-05-10T13:21:47;1.42;;;1.00;;
26989;SDS011;14537;47.788;11.858;2023-05-10T13:24:13;0.77;;;0.70;;
26989;SDS011;14537;47.788;11.858;2023-05-10T13:26:42;2.58;;;0.80;;
26989;SDS011;14537;47.788;11.858;2023-05-10T13:29:08;3.10;;;0.70;;
26989;SDS011;14537;47.788;11.858;2023-05-10T13:31:34;1.02;;;0.70;;
26989;SDS011;14537;47.788;11.858;2023-05-10T13:34:00;0.70;;;0.70;;
26989;SDS011;14537;47.788;11.858;2023-05-10T13:36:26;0.85;;;0.60;;
26989;SDS011;14537;47.788;11.858;2023-05-10T13:38:51;0.80;;;0.75;;
26989;SDS011;14537;47.788;11.858;2023-05-10T13:41:17;0.95;;;0.93;;
26989;SDS011;14537;47.788;11.858;2023-05-10T13:43:43;1.00;;;0.70;;
26989;SDS011;14537;47.788;11.858;2023-05-10T13:46:08;2.47;;;0.73;;
26989;SDS011;14537;47.788;11.858;2023-05-10T13:48:34;0.93;;;0.55;;
26989;SDS011;14537;47.788;11.858;2023-05-10T13:51:01;1.90;;;0.52;;
26989;SDS011;14537;47.788;11.858;2023-05-10T13:53:27;2.67;;;1.17;;
26989;SDS011;14537;47.788;11.858;2023-05-10T13:55:53;0.80;;;0.50;;
26989;SDS011;14537;47.788;11.858;2023-05-10T13:58:18;0.85;;;0.70;;
26989;SDS011;14537;47.788;11.858;2023-05-10T14:00:44;3.50;;;0.60;;
26989;SDS011;14537;47.788;11.858;2023-05-10T14:03:10;1.55;;;0.57;;
26989;SDS011;14537;47.788;11.858;2023-05-10T14:05:35;1.65;;;0.50;;
26989;SDS011;14537;47.788;11.858;2023-05-10T14:08:01;1.10;;;0.40;;
26989;SDS011;14537;47.788;11.858;2023-05-10T14:10:27;0.45;;;0.45;;
26989;SDS011;14537;47.788;11.858;2023-05-10T14:12:53;2.40;;;1.52;;
26989;SDS011;14537;47.788;11.858;2023-05-10T14:15:18;0.65;;;0.63;;
26989;SDS011;14537;47.788;11.858;2023-05-10T14:17:44;1.60;;;0.95;;
26989;SDS011;14537;47.788;11.858;2023-05-10T14:20:10;2.78;;;0.82;;
26989;SDS011;14537;47.788;11.858;2023-05-10T14:22:36;1.33;;;0.82;;
26989;SDS011;14537;47.788;11.858;2023-05-10T14:25:01;1.50;;;0.80;;
26989;SDS011;14537;47.788;11.858;2023-05-10T14:27:27;1.15;;;0.88;;
26989;SDS011;14537;47.788;11.858;2023-05-10T14:29:53;0.77;;;0.70;;
26989;SDS011;14537;47.788;11.858;2023-05-10T14:32:19;1.40;;;0.77;;
26989;SDS011;14537;47.788;11.858;2023-05-10T14:34:44;0.90;;;0.70;;
26989;SDS011;14537;47.788;11.858;2023-05-10T14:37:10;1.50;;;1.02;;
26989;SDS011;14537;47.788;11.858;2023-05-10T14:39:39;1.25;;;0.80;;
26989;SDS011;14537;47.788;11.858;2023-05-10T14:42:05;2.28;;;0.88;;
26989;SDS011;14537;47.788;11.858;2023-05-10T14:44:30;1.30;;;1.02;;
26989;SDS011;14537;47.788;11.858;2023-05-10T14:46:56;0.65;;;0.57;;
26989;SDS011;14537;47.788;11.858;2023-05-10T14:49:22;0.85;;;0.70;;
26989;SDS011;14537;47.788;11.858;2023-05-10T14:51:50;0.50;;;0.50;;
26989;SDS011;14537;47.788;11.858;2023-05-10T14:54:16;1.63;;;0.80;;
26989;SDS011;14537;47.788;11.858;2023-05-10T14:56:42;5.07;;;2.05;;
26989;SDS011;14537;47.788;11.858;2023-05-10T14:59:07;3.03;;;1.60;;
26989;SDS011;14537;47.788;11.858;2023-05-10T15:01:33;5.63;;;1.05;;
26989;SDS011;14537;47.788;11.858;2023-05-10T15:04:02;1.70;;;1.57;;
26989;SDS011;14537;47.788;11.858;2023-05-10T15:06:31;0.73;;;0.50;;
26989;SDS011;14537;47.788;11.858;2023-05-10T15:08:57;1.17;;;0.75;;
26989;SDS011;14537;47.788;11.858;2023-05-10T15:11:23;0.55;;;0.55;;
26989;SDS011;14537;47.788;11.858;2023-05-10T15:13:48;0.50;;;0.50;;
26989;SDS011;14537;47.788;11.858;2023-05-10T15:16:14;1.60;;;0.80;;
26989;SDS011;14537;47.788;11.858;2023-05-10T15:18:40;1.58;;;1.00;;
26989;SDS011;14537;47.788;11.858;2023-05-10T15:21:05;1.08;;;0.52;;
26989;SDS011;14537;47.788;11.858;2023-05-10T15:23:31;1.42;;;0.80;;